sensor_id;sensor_type;location;lat;lon;timestamp;P1;durP1;ratioP1;P2;durP2;ratioP2
63693;SDS011;49839;51.798;10.954;2023-07-22T00:00:06;4.57;;;2.38;;
63693;SDS011;49839;51.798;10.954;2023-07-22T00:02:39;5.53;;;3.13;;
63693;SDS011;49839;51.798;10.954;2023-07-22T00:05:07;6.50;;;2.88;;
63693;SDS011;49839;51.798;10.954;2023-07-22T00:07:36;3.58;;;2.30;;
63693;SDS011;49839;51.798;10.954;2023-07-22T00:10:05;4.57;;;2.70;;
63693;SDS011;49839;51.798;10.954;2023-07-22T00:12:34;6.25;;;2.97;;
63693;SDS011;49839;51.798;10.954;2023-07-22T00:15:03;6.75;;;2.83;;
63693;SDS011;49839;51.798;10.954;2023-07-22T00:17:32;6.10;;;2.60;;
63693;SDS011;49839;51.798;10.954;2023-07-22T00:20:00;6.68;;;3.00;;
63693;SDS011;49839;51.798;10.954;2023-07-22T00:22:30;5.47;;;2.75;;
63693;SDS011;49839;51.798;10.954;2023-07-22T00:24:58;3.83;;;2.50;;
63693;SDS011;49839;51.798;10.954;2023-07-22T00:27:28;7.88;;;3.28;;
63693;SDS011;49839;51.798;10.954;2023-07-22T00:29:56;6.65;;;3.13;;
63693;SDS011;49839;51.798;10.954;2023-07-22T00:32:24;6.38;;;3.10;;
63693;SDS011;49839;51.798;10.954;2023-07-22T00:34:51;5.30;;;3.00;;
63693;SDS011;49839;51.798;10.954;2023-07-22T00:37:19;5.53;;;2.88;;
63693;SDS011;49839;51.798;10.954;2023-07-22T00:39:47;4.28;;;2.80;;
63693;SDS011;49839;51.798;10.954;2023-07-22T00:42:15;5.97;;;2.65;;
63693;SDS011;49839;51.798;10.954;2023-07-22T00:44:44;6.88;;;3.00;;
63693;SDS011;49839;51.798;10.954;2023-07-22T00:47:11;5.80;;;2.60;;
63693;SDS011;49839;51.798;10.954;2023-07-22T00:49:40;5.70;;;2.75;;
63693;SDS011;49839;51.798;10.954;2023-07-22T00:52:08;6.38;;;2.83;;
63693;SDS011;49839;51.798;10.954;2023-07-22T00:54:36;4.70;;;2.55;;
63693;SDS011;49839;51.798;10.954;2023-07-22T00:57:04;5.88;;;2.63;;
63693;SDS011;49839;51.798;10.954;2023-07-22T00:59:32;4.30;;;2.58;;
63693;SDS011;49839;51.798;10.954;2023-07-22T01:59:25;8.35;;;4.68;;
63693;SDS011;49839;51.798;10.954;2023-07-22T02:01:53;8.95;;;4.70;;
63693;SDS011;49839;51.798;10.954;2023-07-22T02:04:20;7.72;;;4.82;;
63693;SDS011;49839;51.798;10.954;2023-07-22T02:06:48;9.70;;;4.93;;
63693;SDS011;49839;51.798;10.954;2023-07-22T02:09:16;11.20;;;5.03;;
63693;SDS011;49839;51.798;10.954;2023-07-22T02:11:43;9.65;;;4.90;;
63693;SDS011;49839;51.798;10.954;2023-07-22T02:14:11;7.65;;;4.82;;
63693;SDS011;49839;51.798;10.954;2023-07-22T02:16:40;8.95;;;5.25;;
63693;SDS011;49839;51.798;10.954;2023-07-22T02:19:08;9.52;;;5.07;;
63693;SDS011;49839;51.798;10.954;2023-07-22T02:21:36;10.00;;;5.38;;
63693;SDS011;49839;51.798;10.954;2023-07-22T02:24:04;9.57;;;4.85;;
63693;SDS011;49839;51.798;10.954;2023-07-22T02:26:32;8.90;;;5.00;;
63693;SDS011;49839;51.798;10.954;2023-07-22T02:28:59;10.80;;;5.30;;
63693;SDS011;49839;51.798;10.954;2023-07-22T02:31:27;8.68;;;4.68;;
63693;SDS011;49839;51.798;10.954;2023-07-22T02:33:56;7.47;;;4.53;;
63693;SDS011;49839;51.798;10.954;2023-07-22T02:36:24;6.85;;;4.18;;
63693;SDS011;49839;51.798;10.954;2023-07-22T02:38:52;8.43;;;4.43;;
63693;SDS011;49839;51.798;10.954;2023-07-22T02:41:20;7.65;;;4.93;;
63693;SDS011;49839;51.798;10.954;2023-07-22T02:43:48;8.75;;;4.78;;
63693;SDS011;49839;51.798;10.954;2023-07-22T02:46:16;7.13;;;4.75;;
63693;SDS011;49839;51.798;10.954;2023-07-22T02:48:44;7.88;;;4.75;;
63693;SDS011;49839;51.798;10.954;2023-07-22T02:51:13;7.72;;;4.63;;
63693;SDS011;49839;51.798;10.954;2023-07-22T02:53:41;9.93;;;4.80;;
63693;SDS011;49839;51.798;10.954;2023-07-22T02:56:10;8.18;;;4.72;;
63693;SDS011;49839;51.798;10.954;2023-07-22T02:58:38;7.18;;;4.28;;
63693;SDS011;49839;51.798;10.954;2023-07-22T03:03:36;8.13;;;5.15;;
63693;SDS011;49839;51.798;10.954;2023-07-22T03:08:36;7.27;;;4.23;;
63693;SDS011;49839;51.798;10.954;2023-07-22T03:11:04;9.65;;;4.75;;
63693;SDS011;49839;51.798;10.954;2023-07-22T03:13:32;11.60;;;5.25;;
63693;SDS011;49839;51.798;10.954;2023-07-22T03:16:01;7.60;;;4.93;;
63693;SDS011;49839;51.798;10.954;2023-07-22T03:18:31;9.60;;;5.43;;
63693;SDS011;49839;51.798;10.954;2023-07-22T03:20:58;9.57;;;5.35;;
63693;SDS011;49839;51.798;10.954;2023-07-22T03:23:26;10.57;;;5.35;;
63693;SDS011;49839;51.798;10.954;2023-07-22T03:25:55;10.30;;;5.63;;
63693;SDS011;49839;51.798;10.954;2023-07-22T03:28:23;10.07;;;5.07;;
63693;SDS011;49839;51.798;10.954;2023-07-22T03:30:52;8.30;;;5.05;;
63693;SDS011;49839;51.798;10.954;2023-07-22T03:33:20;10.05;;;5.13;;
63693;SDS011;49839;51.798;10.954;2023-07-22T03:35:47;12.02;;;5.45;;
63693;SDS011;49839;51.798;10.954;2023-07-22T03:38:15;10.35;;;5.28;;
63693;SDS011;49839;51.798;10.954;2023-07-22T03:40:43;10.68;;;4.95;;
63693;SDS011;49839;51.798;10.954;2023-07-22T03:43:12;9.07;;;5.53;;
63693;SDS011;49839;51.798;10.954;2023-07-22T03:45:40;9.90;;;5.10;;
63693;SDS011;49839;51.798;10.954;2023-07-22T03:48:07;10.43;;;5.28;;
63693;SDS011;49839;51.798;10.954;2023-07-22T03:50:36;8.63;;;5.20;;
63693;SDS011;49839;51.798;10.954;2023-07-22T03:53:03;9.93;;;5.63;;
63693;SDS011;49839;51.798;10.954;2023-07-22T03:55:31;11.18;;;5.60;;
63693;SDS011;49839;51.798;10.954;2023-07-22T03:57:58;11.05;;;5.75;;
63693;SDS011;49839;51.798;10.954;2023-07-22T04:00:28;8.00;;;5.10;;
63693;SDS011;49839;51.798;10.954;2023-07-22T04:02:55;10.63;;;5.82;;
63693;SDS011;49839;51.798;10.954;2023-07-22T04:05:23;8.15;;;4.93;;
63693;SDS011;49839;51.798;10.954;2023-07-22T04:07:51;8.32;;;5.25;;
63693;SDS011;49839;51.798;10.954;2023-07-22T04:10:19;10.95;;;5.63;;
63693;SDS011;49839;51.798;10.954;2023-07-22T04:12:46;10.13;;;5.88;;
63693;SDS011;49839;51.798;10.954;2023-07-22T04:15:14;10.68;;;5.47;;
63693;SDS011;49839;51.798;10.954;2023-07-22T04:17:45;10.18;;;5.53;;
63693;SDS011;49839;51.798;10.954;2023-07-22T04:22:40;10.73;;;5.05;;
63693;SDS011;49839;51.798;10.954;2023-07-22T04:25:08;7.72;;;4.55;;
63693;SDS011;49839;51.798;10.954;2023-07-22T04:27:36;8.73;;;5.38;;
63693;SDS011;49839;51.798;10.954;2023-07-22T04:30:04;7.78;;;4.70;;
63693;SDS011;49839;51.798;10.954;2023-07-22T04:32:33;8.43;;;5.18;;
63693;SDS011;49839;51.798;10.954;2023-07-22T04:35:02;9.85;;;4.65;;
63693;SDS011;49839;51.798;10.954;2023-07-22T04:37:31;9.75;;;5.05;;
63693;SDS011;49839;51.798;10.954;2023-07-22T04:39:59;9.18;;;4.75;;
63693;SDS011;49839;51.798;10.954;2023-07-22T04:42:28;10.40;;;4.60;;
63693;SDS011;49839;51.798;10.954;2023-07-22T04:44:56;9.00;;;4.47;;
63693;SDS011;49839;51.798;10.954;2023-07-22T04:47:23;10.27;;;5.18;;
63693;SDS011;49839;51.798;10.954;2023-07-22T04:49:51;6.82;;;4.15;;
63693;SDS011;49839;51.798;10.954;2023-07-22T04:52:20;8.52;;;4.30;;
63693;SDS011;49839;51.798;10.954;2023-07-22T04:54:48;8.85;;;4.28;;
63693;SDS011;49839;51.798;10.954;2023-07-22T04:57:16;10.50;;;4.63;;
63693;SDS011;49839;51.798;10.954;2023-07-22T04:59:44;6.95;;;4.10;;
63693;SDS011;49839;51.798;10.954;2023-07-22T05:02:12;7.35;;;4.57;;
63693;SDS011;49839;51.798;10.954;2023-07-22T05:04:39;8.77;;;4.25;;
63693;SDS011;49839;51.798;10.954;2023-07-22T05:07:07;8.68;;;3.78;;
63693;SDS011;49839;51.798;10.954;2023-07-22T05:09:37;8.73;;;4.70;;
63693;SDS011;49839;51.798;10.954;2023-07-22T05:12:05;8.27;;;4.50;;
63693;SDS011;49839;51.798;10.954;2023-07-22T05:14:33;8.82;;;4.70;;
63693;SDS011;49839;51.798;10.954;2023-07-22T06:44:26;9.00;;;4.80;;
63693;SDS011;49839;51.798;10.954;2023-07-22T06:46:56;6.78;;;4.15;;
63693;SDS011;49839;51.798;10.954;2023-07-22T06:49:24;6.68;;;3.95;;
63693;SDS011;49839;51.798;10.954;2023-07-22T06:51:52;7.53;;;4.28;;
63693;SDS011;49839;51.798;10.954;2023-07-22T06:54:20;9.70;;;3.85;;
63693;SDS011;49839;51.798;10.954;2023-07-22T06:56:48;9.35;;;4.13;;
63693;SDS011;49839;51.798;10.954;2023-07-22T06:59:15;6.05;;;3.83;;
63693;SDS011;49839;51.798;10.954;2023-07-22T07:01:47;8.32;;;4.53;;
63693;SDS011;49839;51.798;10.954;2023-07-22T07:04:15;8.10;;;4.35;;
63693;SDS011;49839;51.798;10.954;2023-07-22T07:06:43;6.32;;;3.97;;
63693;SDS011;49839;51.798;10.954;2023-07-22T07:09:12;5.63;;;4.07;;
63693;SDS011;49839;51.798;10.954;2023-07-22T07:11:39;10.40;;;4.10;;
63693;SDS011;49839;51.798;10.954;2023-07-22T07:14:07;7.00;;;4.43;;
63693;SDS011;49839;51.798;10.954;2023-07-22T07:16:35;11.02;;;4.70;;
63693;SDS011;49839;51.798;10.954;2023-07-22T07:19:04;10.32;;;4.55;;
63693;SDS011;49839;51.798;10.954;2023-07-22T07:21:36;6.93;;;4.38;;
63693;SDS011;49839;51.798;10.954;2023-07-22T07:24:04;7.97;;;4.70;;
63693;SDS011;49839;51.798;10.954;2023-07-22T07:26:32;8.27;;;4.93;;
63693;SDS011;49839;51.798;10.954;2023-07-22T07:29:00;9.02;;;4.40;;
63693;SDS011;49839;51.798;10.954;2023-07-22T07:31:28;5.97;;;4.22;;
63693;SDS011;49839;51.798;10.954;2023-07-22T07:33:58;9.18;;;4.90;;
63693;SDS011;49839;51.798;10.954;2023-07-22T07:36:28;7.10;;;4.80;;
63693;SDS011;49839;51.798;10.954;2023-07-22T07:38:56;11.18;;;5.07;;
63693;SDS011;49839;51.798;10.954;2023-07-22T07:41:24;6.32;;;4.45;;
63693;SDS011;49839;51.798;10.954;2023-07-22T07:43:52;8.50;;;5.18;;
63693;SDS011;49839;51.798;10.954;2023-07-22T07:46:21;7.15;;;4.75;;
63693;SDS011;49839;51.798;10.954;2023-07-22T07:48:50;7.88;;;4.53;;
63693;SDS011;49839;51.798;10.954;2023-07-22T07:53:49;6.82;;;4.45;;
63693;SDS011;49839;51.798;10.954;2023-07-22T07:58:46;9.20;;;4.53;;
63693;SDS011;49839;51.798;10.954;2023-07-22T08:01:15;7.45;;;5.00;;
63693;SDS011;49839;51.798;10.954;2023-07-22T08:03:44;9.70;;;4.72;;
63693;SDS011;49839;51.798;10.954;2023-07-22T08:06:12;8.38;;;5.03;;
63693;SDS011;49839;51.798;10.954;2023-07-22T08:08:44;7.53;;;4.85;;
63693;SDS011;49839;51.798;10.954;2023-07-22T08:11:14;6.55;;;4.68;;
63693;SDS011;49839;51.798;10.954;2023-07-22T08:13:43;7.95;;;4.38;;
63693;SDS011;49839;51.798;10.954;2023-07-22T08:16:11;8.73;;;4.72;;
63693;SDS011;49839;51.798;10.954;2023-07-22T08:21:08;13.50;;;4.63;;
63693;SDS011;49839;51.798;10.954;2023-07-22T08:23:36;7.47;;;3.97;;
63693;SDS011;49839;51.798;10.954;2023-07-22T08:26:04;6.85;;;4.15;;
63693;SDS011;49839;51.798;10.954;2023-07-22T08:28:34;8.32;;;4.82;;
63693;SDS011;49839;51.798;10.954;2023-07-22T08:33:29;7.20;;;4.97;;
63693;SDS011;49839;51.798;10.954;2023-07-22T08:36:00;8.05;;;5.10;;
63693;SDS011;49839;51.798;10.954;2023-07-22T08:38:28;8.85;;;4.88;;
63693;SDS011;49839;51.798;10.954;2023-07-22T08:40:56;8.40;;;5.22;;
63693;SDS011;49839;51.798;10.954;2023-07-22T08:43:24;7.63;;;4.38;;
63693;SDS011;49839;51.798;10.954;2023-07-22T08:45:58;7.07;;;4.38;;
63693;SDS011;49839;51.798;10.954;2023-07-22T08:48:29;8.00;;;4.80;;
63693;SDS011;49839;51.798;10.954;2023-07-22T08:51:02;6.53;;;4.00;;
63693;SDS011;49839;51.798;10.954;2023-07-22T08:53:31;7.55;;;4.18;;
63693;SDS011;49839;51.798;10.954;2023-07-22T08:56:00;6.32;;;3.72;;
63693;SDS011;49839;51.798;10.954;2023-07-22T08:58:28;8.55;;;4.50;;
63693;SDS011;49839;51.798;10.954;2023-07-22T09:00:58;6.68;;;4.55;;
63693;SDS011;49839;51.798;10.954;2023-07-22T09:03:26;7.07;;;4.22;;
63693;SDS011;49839;51.798;10.954;2023-07-22T09:05:55;9.23;;;5.07;;
63693;SDS011;49839;51.798;10.954;2023-07-22T09:08:24;6.57;;;4.35;;
63693;SDS011;49839;51.798;10.954;2023-07-22T09:10:52;7.47;;;4.95;;
63693;SDS011;49839;51.798;10.954;2023-07-22T09:13:20;7.82;;;4.75;;
63693;SDS011;49839;51.798;10.954;2023-07-22T09:15:49;8.90;;;4.95;;
63693;SDS011;49839;51.798;10.954;2023-07-22T09:20:47;6.60;;;3.95;;
63693;SDS011;49839;51.798;10.954;2023-07-22T09:23:15;7.13;;;4.25;;
63693;SDS011;49839;51.798;10.954;2023-07-22T09:25:43;6.43;;;3.80;;
63693;SDS011;49839;51.798;10.954;2023-07-22T09:28:10;7.85;;;4.13;;
63693;SDS011;49839;51.798;10.954;2023-07-22T09:30:39;6.13;;;3.80;;
63693;SDS011;49839;51.798;10.954;2023-07-22T09:33:08;6.32;;;4.10;;
63693;SDS011;49839;51.798;10.954;2023-07-22T09:35:50;8.20;;;3.75;;
63693;SDS011;49839;51.798;10.954;2023-07-22T09:38:22;8.35;;;4.40;;
63693;SDS011;49839;51.798;10.954;2023-07-22T09:40:51;7.10;;;3.90;;
63693;SDS011;49839;51.798;10.954;2023-07-22T09:43:21;6.60;;;4.03;;
63693;SDS011;49839;51.798;10.954;2023-07-22T09:45:50;6.15;;;3.60;;
63693;SDS011;49839;51.798;10.954;2023-07-22T09:48:18;6.35;;;4.05;;
63693;SDS011;49839;51.798;10.954;2023-07-22T09:50:56;6.35;;;3.90;;
63693;SDS011;49839;51.798;10.954;2023-07-22T09:53:24;6.63;;;4.15;;
63693;SDS011;49839;51.798;10.954;2023-07-22T09:55:52;9.95;;;4.18;;
63693;SDS011;49839;51.798;10.954;2023-07-22T09:58:20;6.45;;;4.28;;
63693;SDS011;49839;51.798;10.954;2023-07-22T10:00:52;7.38;;;4.18;;
63693;SDS011;49839;51.798;10.954;2023-07-22T10:03:20;8.52;;;4.15;;
63693;SDS011;49839;51.798;10.954;2023-07-22T10:05:54;6.63;;;4.47;;
63693;SDS011;49839;51.798;10.954;2023-07-22T10:08:23;7.88;;;4.50;;
63693;SDS011;49839;51.798;10.954;2023-07-22T10:10:51;7.10;;;4.43;;
63693;SDS011;49839;51.798;10.954;2023-07-22T10:13:23;6.00;;;3.92;;
63693;SDS011;49839;51.798;10.954;2023-07-22T10:15:51;7.22;;;4.00;;
63693;SDS011;49839;51.798;10.954;2023-07-22T10:18:20;6.22;;;4.00;;
63693;SDS011;49839;51.798;10.954;2023-07-22T10:20:48;6.07;;;3.65;;
63693;SDS011;49839;51.798;10.954;2023-07-22T10:25:46;6.32;;;3.63;;
63693;SDS011;49839;51.798;10.954;2023-07-22T10:28:16;7.65;;;3.97;;
63693;SDS011;49839;51.798;10.954;2023-07-22T10:30:45;8.43;;;3.70;;
63693;SDS011;49839;51.798;10.954;2023-07-22T10:33:13;6.50;;;3.75;;
63693;SDS011;49839;51.798;10.954;2023-07-22T10:35:41;7.45;;;3.80;;
63693;SDS011;49839;51.798;10.954;2023-07-22T10:38:11;5.90;;;3.50;;
63693;SDS011;49839;51.798;10.954;2023-07-22T10:40:49;6.53;;;3.33;;
63693;SDS011;49839;51.798;10.954;2023-07-22T10:43:23;6.28;;;3.35;;
63693;SDS011;49839;51.798;10.954;2023-07-22T10:45:53;6.80;;;3.33;;
63693;SDS011;49839;51.798;10.954;2023-07-22T10:48:23;7.30;;;3.90;;
63693;SDS011;49839;51.798;10.954;2023-07-22T10:50:54;6.28;;;3.92;;
63693;SDS011;49839;51.798;10.954;2023-07-22T10:53:29;7.75;;;3.70;;
63693;SDS011;49839;51.798;10.954;2023-07-22T10:56:10;6.40;;;3.78;;
63693;SDS011;49839;51.798;10.954;2023-07-22T10:58:59;7.78;;;4.15;;
63693;SDS011;49839;51.798;10.954;2023-07-22T11:01:33;5.95;;;3.55;;
63693;SDS011;49839;51.798;10.954;2023-07-22T11:04:05;6.88;;;3.90;;
63693;SDS011;49839;51.798;10.954;2023-07-22T11:06:37;6.82;;;3.80;;
63693;SDS011;49839;51.798;10.954;2023-07-22T11:09:06;5.63;;;3.30;;
63693;SDS011;49839;51.798;10.954;2023-07-22T11:11:58;7.47;;;3.70;;
63693;SDS011;49839;51.798;10.954;2023-07-22T11:14:28;8.25;;;3.75;;
63693;SDS011;49839;51.798;10.954;2023-07-22T11:16:58;9.20;;;3.97;;
63693;SDS011;49839;51.798;10.954;2023-07-22T11:19:31;5.55;;;3.80;;
63693;SDS011;49839;51.798;10.954;2023-07-22T11:22:00;5.57;;;3.17;;
63693;SDS011;49839;51.798;10.954;2023-07-22T11:24:28;6.65;;;3.33;;
63693;SDS011;49839;51.798;10.954;2023-07-22T11:26:58;7.28;;;4.13;;
63693;SDS011;49839;51.798;10.954;2023-07-22T11:29:26;7.95;;;4.45;;
63693;SDS011;49839;51.798;10.954;2023-07-22T11:31:54;8.02;;;4.97;;
63693;SDS011;49839;51.798;10.954;2023-07-22T11:34:22;8.45;;;3.50;;
63693;SDS011;49839;51.798;10.954;2023-07-22T11:39:19;6.97;;;4.25;;
63693;SDS011;49839;51.798;10.954;2023-07-22T11:41:48;5.57;;;3.90;;
63693;SDS011;49839;51.798;10.954;2023-07-22T11:44:19;6.90;;;3.67;;
63693;SDS011;49839;51.798;10.954;2023-07-22T11:46:52;7.78;;;4.18;;
63693;SDS011;49839;51.798;10.954;2023-07-22T11:49:21;7.88;;;4.30;;
63693;SDS011;49839;51.798;10.954;2023-07-22T11:51:56;5.80;;;3.70;;
63693;SDS011;49839;51.798;10.954;2023-07-22T11:54:25;6.07;;;3.88;;
63693;SDS011;49839;51.798;10.954;2023-07-22T11:56:53;6.63;;;4.05;;
63693;SDS011;49839;51.798;10.954;2023-07-22T11:59:34;7.28;;;4.03;;
63693;SDS011;49839;51.798;10.954;2023-07-22T12:02:03;9.88;;;4.50;;
63693;SDS011;49839;51.798;10.954;2023-07-22T12:04:32;7.45;;;4.18;;
63693;SDS011;49839;51.798;10.954;2023-07-22T12:07:01;7.78;;;4.60;;
63693;SDS011;49839;51.798;10.954;2023-07-22T12:11:58;8.77;;;4.35;;
63693;SDS011;49839;51.798;10.954;2023-07-22T12:14:34;6.60;;;4.38;;
63693;SDS011;49839;51.798;10.954;2023-07-22T12:17:02;9.00;;;4.90;;
63693;SDS011;49839;51.798;10.954;2023-07-22T12:19:30;8.25;;;4.80;;
63693;SDS011;49839;51.798;10.954;2023-07-22T12:21:58;8.80;;;4.72;;
63693;SDS011;49839;51.798;10.954;2023-07-22T12:24:26;6.75;;;4.25;;
63693;SDS011;49839;51.798;10.954;2023-07-22T12:26:54;9.57;;;4.82;;
63693;SDS011;49839;51.798;10.954;2023-07-22T12:29:22;7.65;;;4.38;;
63693;SDS011;49839;51.798;10.954;2023-07-22T12:31:51;7.38;;;4.25;;
63693;SDS011;49839;51.798;10.954;2023-07-22T12:34:19;7.75;;;4.10;;
63693;SDS011;49839;51.798;10.954;2023-07-22T12:36:46;5.82;;;3.95;;
63693;SDS011;49839;51.798;10.954;2023-07-22T12:39:15;6.13;;;4.00;;
63693;SDS011;49839;51.798;10.954;2023-07-22T12:41:42;7.97;;;4.32;;
63693;SDS011;49839;51.798;10.954;2023-07-22T12:44:10;8.02;;;4.03;;
63693;SDS011;49839;51.798;10.954;2023-07-22T12:46:38;11.30;;;4.40;;
63693;SDS011;49839;51.798;10.954;2023-07-22T12:49:07;7.53;;;4.10;;
63693;SDS011;49839;51.798;10.954;2023-07-22T12:51:34;7.00;;;3.75;;
63693;SDS011;49839;51.798;10.954;2023-07-22T12:54:02;7.20;;;3.90;;
63693;SDS011;49839;51.798;10.954;2023-07-22T12:56:30;7.60;;;3.42;;
63693;SDS011;49839;51.798;10.954;2023-07-22T12:58:58;6.07;;;3.85;;
63693;SDS011;49839;51.798;10.954;2023-07-22T13:01:25;6.82;;;3.90;;
63693;SDS011;49839;51.798;10.954;2023-07-22T13:03:53;6.15;;;3.58;;
63693;SDS011;49839;51.798;10.954;2023-07-22T13:06:22;6.95;;;3.60;;
63693;SDS011;49839;51.798;10.954;2023-07-22T13:11:18;8.27;;;3.40;;
63693;SDS011;49839;51.798;10.954;2023-07-22T13:13:45;7.72;;;3.80;;
63693;SDS011;49839;51.798;10.954;2023-07-22T13:16:13;6.05;;;3.80;;
63693;SDS011;49839;51.798;10.954;2023-07-22T13:18:41;5.13;;;3.50;;
63693;SDS011;49839;51.798;10.954;2023-07-22T13:21:08;7.53;;;3.50;;
63693;SDS011;49839;51.798;10.954;2023-07-22T13:23:37;6.72;;;3.67;;
63693;SDS011;49839;51.798;10.954;2023-07-22T13:26:05;5.85;;;3.38;;
63693;SDS011;49839;51.798;10.954;2023-07-22T13:28:32;5.00;;;3.38;;
63693;SDS011;49839;51.798;10.954;2023-07-22T13:31:00;5.45;;;3.40;;
63693;SDS011;49839;51.798;10.954;2023-07-22T13:33:28;5.53;;;3.08;;
63693;SDS011;49839;51.798;10.954;2023-07-22T13:35:56;4.80;;;3.30;;
63693;SDS011;49839;51.798;10.954;2023-07-22T13:38:23;5.45;;;2.67;;
63693;SDS011;49839;51.798;10.954;2023-07-22T13:40:53;4.97;;;3.20;;
63693;SDS011;49839;51.798;10.954;2023-07-22T13:43:21;6.30;;;3.58;;
63693;SDS011;49839;51.798;10.954;2023-07-22T13:45:48;6.30;;;3.40;;
63693;SDS011;49839;51.798;10.954;2023-07-22T13:48:16;5.13;;;3.38;;
63693;SDS011;49839;51.798;10.954;2023-07-22T13:50:44;5.20;;;3.47;;
63693;SDS011;49839;51.798;10.954;2023-07-22T13:53:11;5.20;;;3.47;;
63693;SDS011;49839;51.798;10.954;2023-07-22T13:55:39;6.43;;;3.20;;
63693;SDS011;49839;51.798;10.954;2023-07-22T13:58:08;6.10;;;3.20;;
63693;SDS011;49839;51.798;10.954;2023-07-22T14:00:36;4.85;;;3.20;;
63693;SDS011;49839;51.798;10.954;2023-07-22T14:03:04;5.97;;;3.30;;
63693;SDS011;49839;51.798;10.954;2023-07-22T14:05:31;6.35;;;3.10;;
63693;SDS011;49839;51.798;10.954;2023-07-22T14:07:59;8.68;;;3.30;;
63693;SDS011;49839;51.798;10.954;2023-07-22T14:10:27;5.47;;;3.22;;
63693;SDS011;49839;51.798;10.954;2023-07-22T14:12:54;6.13;;;3.13;;
63693;SDS011;49839;51.798;10.954;2023-07-22T14:15:23;7.18;;;3.55;;
63693;SDS011;49839;51.798;10.954;2023-07-22T14:17:51;6.47;;;3.15;;
63693;SDS011;49839;51.798;10.954;2023-07-22T14:20:18;5.47;;;3.67;;
63693;SDS011;49839;51.798;10.954;2023-07-22T14:22:46;5.38;;;3.47;;
63693;SDS011;49839;51.798;10.954;2023-07-22T14:25:16;4.45;;;3.08;;
63693;SDS011;49839;51.798;10.954;2023-07-22T14:27:45;5.10;;;3.47;;
63693;SDS011;49839;51.798;10.954;2023-07-22T14:30:12;6.00;;;3.38;;
63693;SDS011;49839;51.798;10.954;2023-07-22T14:32:41;5.13;;;3.30;;
63693;SDS011;49839;51.798;10.954;2023-07-22T14:35:09;5.45;;;3.40;;
63693;SDS011;49839;51.798;10.954;2023-07-22T14:37:37;6.55;;;3.50;;
63693;SDS011;49839;51.798;10.954;2023-07-22T14:40:05;6.30;;;3.28;;
63693;SDS011;49839;51.798;10.954;2023-07-22T14:42:36;5.40;;;3.20;;
63693;SDS011;49839;51.798;10.954;2023-07-22T14:45:04;7.03;;;3.38;;
63693;SDS011;49839;51.798;10.954;2023-07-22T14:47:33;6.40;;;3.35;;
63693;SDS011;49839;51.798;10.954;2023-07-22T14:50:03;6.00;;;3.40;;
63693;SDS011;49839;51.798;10.954;2023-07-22T14:52:31;8.68;;;3.75;;
63693;SDS011;49839;51.798;10.954;2023-07-22T14:54:59;7.97;;;3.08;;
63693;SDS011;49839;51.798;10.954;2023-07-22T14:57:27;7.20;;;3.28;;
63693;SDS011;49839;51.798;10.954;2023-07-22T14:59:57;5.72;;;3.47;;
63693;SDS011;49839;51.798;10.954;2023-07-22T15:02:25;6.05;;;3.40;;
63693;SDS011;49839;51.798;10.954;2023-07-22T15:04:53;4.80;;;3.17;;
63693;SDS011;49839;51.798;10.954;2023-07-22T15:07:22;4.90;;;3.17;;
63693;SDS011;49839;51.798;10.954;2023-07-22T15:09:51;7.72;;;3.38;;
63693;SDS011;49839;51.798;10.954;2023-07-22T15:12:19;6.75;;;3.55;;
63693;SDS011;49839;51.798;10.954;2023-07-22T15:14:47;4.82;;;2.95;;
63693;SDS011;49839;51.798;10.954;2023-07-22T15:17:14;5.00;;;3.00;;
63693;SDS011;49839;51.798;10.954;2023-07-22T15:19:42;6.07;;;3.10;;
63693;SDS011;49839;51.798;10.954;2023-07-22T15:22:10;6.15;;;3.63;;
63693;SDS011;49839;51.798;10.954;2023-07-22T15:24:39;7.57;;;4.22;;
63693;SDS011;49839;51.798;10.954;2023-07-22T15:27:07;6.38;;;3.10;;
63693;SDS011;49839;51.798;10.954;2023-07-22T15:29:35;4.75;;;2.72;;
63693;SDS011;49839;51.798;10.954;2023-07-22T15:32:03;4.45;;;2.88;;
63693;SDS011;49839;51.798;10.954;2023-07-22T15:34:31;6.32;;;2.80;;
63693;SDS011;49839;51.798;10.954;2023-07-22T15:36:59;4.32;;;2.67;;
63693;SDS011;49839;51.798;10.954;2023-07-22T15:39:27;9.75;;;3.22;;
63693;SDS011;49839;51.798;10.954;2023-07-22T15:41:56;6.38;;;3.00;;
63693;SDS011;49839;51.798;10.954;2023-07-22T15:44:23;5.70;;;3.85;;
63693;SDS011;49839;51.798;10.954;2023-07-22T15:46:53;4.93;;;2.90;;
63693;SDS011;49839;51.798;10.954;2023-07-22T15:49:21;4.22;;;2.70;;
63693;SDS011;49839;51.798;10.954;2023-07-22T15:51:49;5.70;;;2.83;;
63693;SDS011;49839;51.798;10.954;2023-07-22T15:54:17;6.45;;;3.10;;
63693;SDS011;49839;51.798;10.954;2023-07-22T15:56:46;6.28;;;3.20;;
63693;SDS011;49839;51.798;10.954;2023-07-22T15:59:14;6.18;;;3.10;;
63693;SDS011;49839;51.798;10.954;2023-07-22T16:01:42;5.90;;;3.83;;
63693;SDS011;49839;51.798;10.954;2023-07-22T16:04:10;5.65;;;3.50;;
63693;SDS011;49839;51.798;10.954;2023-07-22T16:06:38;5.43;;;3.28;;
63693;SDS011;49839;51.798;10.954;2023-07-22T16:09:05;5.43;;;3.13;;
63693;SDS011;49839;51.798;10.954;2023-07-22T16:11:33;4.88;;;3.20;;
63693;SDS011;49839;51.798;10.954;2023-07-22T16:14:01;5.30;;;2.88;;
63693;SDS011;49839;51.798;10.954;2023-07-22T16:16:31;4.70;;;3.10;;
63693;SDS011;49839;51.798;10.954;2023-07-22T16:19:03;5.53;;;3.03;;
63693;SDS011;49839;51.798;10.954;2023-07-22T16:21:30;5.32;;;2.80;;
63693;SDS011;49839;51.798;10.954;2023-07-22T16:23:58;6.63;;;3.28;;
63693;SDS011;49839;51.798;10.954;2023-07-22T16:26:26;6.32;;;3.45;;
63693;SDS011;49839;51.798;10.954;2023-07-22T16:28:53;5.45;;;3.13;;
63693;SDS011;49839;51.798;10.954;2023-07-22T16:31:21;6.82;;;2.92;;
63693;SDS011;49839;51.798;10.954;2023-07-22T16:33:50;6.50;;;3.00;;
63693;SDS011;49839;51.798;10.954;2023-07-22T16:36:18;6.00;;;2.90;;
63693;SDS011;49839;51.798;10.954;2023-07-22T16:38:45;7.07;;;3.60;;
63693;SDS011;49839;51.798;10.954;2023-07-22T16:41:14;5.80;;;3.03;;
63693;SDS011;49839;51.798;10.954;2023-07-22T16:43:41;5.10;;;3.08;;
63693;SDS011;49839;51.798;10.954;2023-07-22T16:46:09;5.90;;;2.97;;
63693;SDS011;49839;51.798;10.954;2023-07-22T16:48:36;5.80;;;3.30;;
63693;SDS011;49839;51.798;10.954;2023-07-22T16:51:05;5.38;;;3.40;;
63693;SDS011;49839;51.798;10.954;2023-07-22T16:53:33;5.22;;;3.15;;
63693;SDS011;49839;51.798;10.954;2023-07-22T16:56:01;5.55;;;2.72;;
63693;SDS011;49839;51.798;10.954;2023-07-22T16:58:29;5.68;;;2.63;;
63693;SDS011;49839;51.798;10.954;2023-07-22T17:00:56;5.78;;;2.95;;
63693;SDS011;49839;51.798;10.954;2023-07-22T17:03:24;5.25;;;3.38;;
63693;SDS011;49839;51.798;10.954;2023-07-22T17:05:52;6.85;;;2.85;;
63693;SDS011;49839;51.798;10.954;2023-07-22T17:08:21;5.28;;;2.80;;
63693;SDS011;49839;51.798;10.954;2023-07-22T17:10:48;4.97;;;2.70;;
63693;SDS011;49839;51.798;10.954;2023-07-22T17:13:16;5.80;;;2.72;;
63693;SDS011;49839;51.798;10.954;2023-07-22T17:15:44;6.03;;;2.80;;
63693;SDS011;49839;51.798;10.954;2023-07-22T17:18:12;6.00;;;3.30;;
63693;SDS011;49839;51.798;10.954;2023-07-22T17:20:40;3.95;;;2.50;;
63693;SDS011;49839;51.798;10.954;2023-07-22T17:23:08;6.05;;;2.67;;
63693;SDS011;49839;51.798;10.954;2023-07-22T17:25:37;6.75;;;2.67;;
63693;SDS011;49839;51.798;10.954;2023-07-22T17:28:05;4.97;;;2.47;;
63693;SDS011;49839;51.798;10.954;2023-07-22T17:30:33;4.90;;;2.53;;
63693;SDS011;49839;51.798;10.954;2023-07-22T17:33:01;5.47;;;2.97;;
63693;SDS011;49839;51.798;10.954;2023-07-22T17:35:30;4.93;;;3.08;;